sensor_id;sensor_type;location;lat;lon;timestamp;pressure;altitude;pressure_sealevel;temperature;humidity
36062;BME280;22123;52.412;20.970;2024-03-08T00:00:33;101648.56;;;-4.83;100.00
36062;BME280;22123;52.412;20.970;2024-03-08T00:02:59;101642.38;;;-4.82;100.00
36062;BME280;22123;52.412;20.970;2024-03-08T00:05:25;101631.97;;;-4.85;100.00
36062;BME280;22123;52.412;20.970;2024-03-08T00:07:51;101653.72;;;-4.80;100.00
36062;BME280;22123;52.412;20.970;2024-03-08T00:10:17;101636.34;;;-4.84;100.00
36062;BME280;22123;52.412;20.970;2024-03-08T00:12:44;101643.41;;;-4.86;100.00
36062;BME280;22123;52.412;20.970;2024-03-08T00:15:10;101670.91;;;-4.68;100.00
36062;BME280;22123;52.412;20.970;2024-03-08T00:17:36;101649.41;;;-4.83;100.00
36062;BME280;22123;52.412;20.970;2024-03-08T00:20:02;101670.25;;;-4.77;100.00
36062;BME280;22123;52.412;20.970;2024-03-08T00:22:28;101616.88;;;-5.09;100.00
36062;BME280;22123;52.412;20.970;2024-03-08T00:24:54;101637.56;;;-4.96;100.00
36062;BME280;22123;52.412;20.970;2024-03-08T00:27:20;101615.31;;;-5.16;100.00
36062;BME280;22123;52.412;20.970;2024-03-08T00:29:46;101648.81;;;-4.93;100.00
36062;BME280;22123;52.412;20.970;2024-03-08T00:32:12;101631.50;;;-5.00;100.00
36062;BME280;22123;52.412;20.970;2024-03-08T00:34:38;101621.28;;;-5.09;100.00
36062;BME280;22123;52.412;20.970;2024-03-08T00:37:04;101649.84;;;-4.98;100.00
36062;BME280;22123;52.412;20.970;2024-03-08T00:39:30;101646.47;;;-5.02;100.00
36062;BME280;22123;52.412;20.970;2024-03-08T00:41:56;101624.13;;;-5.17;100.00
36062;BME280;22123;52.412;20.970;2024-03-08T00:44:21;101626.72;;;-5.15;100.00
36062;BME280;22123;52.412;20.970;2024-03-08T00:46:47;101638.81;;;-5.10;100.00
36062;BME280;22123;52.412;20.970;2024-03-08T00:49:13;101650.88;;;-5.04;100.00
36062;BME280;22123;52.412;20.970;2024-03-08T00:51:39;101636.19;;;-5.10;100.00
36062;BME280;22123;52.412;20.970;2024-03-08T00:54:05;101626.72;;;-5.15;100.00
36062;BME280;22123;52.412;20.970;2024-03-08T00:56:31;101619.94;;;-5.24;100.00
36062;BME280;22123;52.412;20.970;2024-03-08T00:58:57;101639.00;;;-5.17;100.00
36062;BME280;22123;52.412;20.970;2024-03-08T01:01:23;101639.00;;;-5.17;100.00
36062;BME280;22123;52.412;20.970;2024-03-08T01:03:49;101662.34;;;-5.07;100.00
36062;BME280;22123;52.412;20.970;2024-03-08T01:06:15;101637.41;;;-5.23;100.00
36062;BME280;22123;52.412;20.970;2024-03-08T01:08:40;101652.84;;;-5.11;100.00
36062;BME280;22123;52.412;20.970;2024-03-08T01:11:06;101611.63;;;-5.40;100.00
36062;BME280;22123;52.412;20.970;2024-03-08T01:13:32;101546.25;;;-5.82;100.00
36062;BME280;22123;52.412;20.970;2024-03-08T01:15:58;101598.88;;;-5.54;100.00
36062;BME280;22123;52.412;20.970;2024-03-08T01:18:24;101646.25;;;-5.26;100.00
36062;BME280;22123;52.412;20.970;2024-03-08T01:20:50;101611.06;;;-5.51;100.00
36062;BME280;22123;52.412;20.970;2024-03-08T01:23:16;101633.44;;;-5.38;100.00
36062;BME280;22123;52.412;20.970;2024-03-08T01:25:42;101567.06;;;-5.74;100.00
36062;BME280;22123;52.412;20.970;2024-03-08T01:28:07;101639.50;;;-5.36;100.00
36062;BME280;22123;52.412;20.970;2024-03-08T01:30:33;101635.94;;;-5.33;100.00
36062;BME280;22123;52.412;20.970;2024-03-08T01:33:00;101614.50;;;-5.49;100.00
36062;BME280;22123;52.412;20.970;2024-03-08T01:35:26;101586.16;;;-5.69;100.00
36062;BME280;22123;52.412;20.970;2024-03-08T01:37:51;101580.38;;;-5.82;100.00
36062;BME280;22123;52.412;20.970;2024-03-08T01:40:17;101588.81;;;-5.71;100.00
36062;BME280;22123;52.412;20.970;2024-03-08T01:42:43;101630.22;;;-5.49;100.00
36062;BME280;22123;52.412;20.970;2024-03-08T01:45:09;101597.53;;;-5.69;100.00
36062;BME280;22123;52.412;20.970;2024-03-08T01:47:35;101588.22;;;-5.82;100.00
36062;BME280;22123;52.412;20.970;2024-03-08T01:50:02;101638.06;;;-5.48;100.00
36062;BME280;22123;52.412;20.970;2024-03-08T01:52:29;101588.00;;;-5.73;100.00
36062;BME280;22123;52.412;20.970;2024-03-08T01:54:55;101628.59;;;-5.53;100.00
36062;BME280;22123;52.412;20.970;2024-03-08T01:57:21;101620.72;;;-5.53;100.00
36062;BME280;22123;52.412;20.970;2024-03-08T01:59:47;101634.69;;;-5.51;100.00
36062;BME280;22123;52.412;20.970;2024-03-08T02:02:14;101596.91;;;-5.79;100.00
36062;BME280;22123;52.412;20.970;2024-03-08T02:04:44;101592.50;;;-5.78;100.00
36062;BME280;22123;52.412;20.970;2024-03-08T02:07:10;101633.19;;;-5.62;100.00
36062;BME280;22123;52.412;20.970;2024-03-08T02:09:36;101565.19;;;-6.02;100.00
36062;BME280;22123;52.412;20.970;2024-03-08T02:12:02;101573.72;;;-5.96;100.00
36062;BME280;22123;52.412;20.970;2024-03-08T02:14:28;101625.38;;;-5.63;100.00
36062;BME280;22123;52.412;20.970;2024-03-08T02:16:54;101583.03;;;-5.84;100.00
36062;BME280;22123;52.412;20.970;2024-03-08T02:19:20;101574.44;;;-5.89;100.00
36062;BME280;22123;52.412;20.970;2024-03-08T02:21:46;101567.59;;;-5.95;100.00
36062;BME280;22123;52.412;20.970;2024-03-08T02:24:12;101567.50;;;-5.91;100.00
36062;BME280;22123;52.412;20.970;2024-03-08T02:26:38;101596.59;;;-5.68;100.00
36062;BME280;22123;52.412;20.970;2024-03-08T02:29:04;101579.56;;;-5.84;100.00
36062;BME280;22123;52.412;20.970;2024-03-08T02:31:30;101596.84;;;-5.77;100.00
36062;BME280;22123;52.412;20.970;2024-03-08T02:33:56;101582.38;;;-5.92;100.00
36062;BME280;22123;52.412;20.970;2024-03-08T02:36:22;101592.84;;;-5.90;100.00
36062;BME280;22123;52.412;20.970;2024-03-08T02:38:48;101615.13;;;-5.74;100.00
36062;BME280;22123;52.412;20.970;2024-03-08T02:41:14;101564.41;;;-6.06;100.00
36062;BME280;22123;52.412;20.970;2024-03-08T02:43:39;101591.06;;;-5.90;100.00
36062;BME280;22123;52.412;20.970;2024-03-08T02:46:05;101554.88;;;-6.10;100.00
36062;BME280;22123;52.412;20.970;2024-03-08T02:48:31;101573.03;;;-6.01;100.00
36062;BME280;22123;52.412;20.970;2024-03-08T02:50:57;101570.47;;;-6.04;100.00
36062;BME280;22123;52.412;20.970;2024-03-08T02:53:23;101542.91;;;-6.20;100.00
36062;BME280;22123;52.412;20.970;2024-03-08T02:55:49;101605.69;;;-5.81;100.00
36062;BME280;22123;52.412;20.970;2024-03-08T02:58:15;101600.44;;;-5.81;100.00
36062;BME280;22123;52.412;20.970;2024-03-08T03:00:41;101542.06;;;-6.21;100.00
36062;BME280;22123;52.412;20.970;2024-03-08T03:03:07;101547.19;;;-6.16;100.00
36062;BME280;22123;52.412;20.970;2024-03-08T03:05:33;101598.88;;;-5.88;100.00
36062;BME280;22123;52.412;20.970;2024-03-08T03:07:59;101560.31;;;-6.18;100.00
36062;BME280;22123;52.412;20.970;2024-03-08T03:10:25;101547.47;;;-6.29;100.00
36062;BME280;22123;52.412;20.970;2024-03-08T03:12:51;101583.59;;;-6.05;100.00
36062;BME280;22123;52.412;20.970;2024-03-08T03:15:17;101554.53;;;-6.31;100.00
36062;BME280;22123;52.412;20.970;2024-03-08T03:17:50;101599.25;;;-6.01;100.00
36062;BME280;22123;52.412;20.970;2024-03-08T03:20:17;101568.22;;;-6.19;100.00
36062;BME280;22123;52.412;20.970;2024-03-08T03:22:43;101597.50;;;-6.02;100.00
36062;BME280;22123;52.412;20.970;2024-03-08T03:25:09;101538.88;;;-6.34;100.00
36062;BME280;22123;52.412;20.970;2024-03-08T03:27:35;101560.56;;;-6.27;100.00
36062;BME280;22123;52.412;20.970;2024-03-08T03:30:01;101552.84;;;-6.33;100.00
36062;BME280;22123;52.412;20.970;2024-03-08T03:32:26;101532.13;;;-6.44;100.00
36062;BME280;22123;52.412;20.970;2024-03-08T03:34:52;101565.69;;;-6.22;100.00
36062;BME280;22123;52.412;20.970;2024-03-08T03:37:19;101534.56;;;-6.36;100.00
36062;BME280;22123;52.412;20.970;2024-03-08T03:39:45;101575.97;;;-6.15;100.00
36062;BME280;22123;52.412;20.970;2024-03-08T03:42:11;101568.34;;;-6.24;100.00
36062;BME280;22123;52.412;20.970;2024-03-08T03:44:37;101595.00;;;-6.06;100.00
36062;BME280;22123;52.412;20.970;2024-03-08T03:47:03;101595.94;;;-6.09;100.00
36062;BME280;22123;52.412;20.970;2024-03-08T03:49:28;101548.59;;;-6.39;100.00
36062;BME280;22123;52.412;20.970;2024-03-08T03:51:54;101572.66;;;-6.23;100.00
36062;BME280;22123;52.412;20.970;2024-03-08T03:54:20;101544.28;;;-6.40;100.00
36062;BME280;22123;52.412;20.970;2024-03-08T03:56:46;101595.19;;;-6.14;100.00
36062;BME280;22123;52.412;20.970;2024-03-08T03:59:12;101552.94;;;-6.38;100.00
36062;BME280;22123;52.412;20.970;2024-03-08T04:01:42;101583.00;;;-6.15;100.00
36062;BME280;22123;52.412;20.970;2024-03-08T04:04:07;101552.94;;;-6.38;100.00
36062;BME280;22123;52.412;20.970;2024-03-08T04:06:33;101586.50;;;-6.16;100.00
36062;BME280;22123;52.412;20.970;2024-03-08T04:08:59;101581.31;;;-6.18;100.00
36062;BME280;22123;52.412;20.970;2024-03-08T04:11:25;101583.06;;;-6.18;100.00
36062;BME280;22123;52.412;20.970;2024-03-08T04:13:51;101547.72;;;-6.38;100.00
36062;BME280;22123;52.412;20.970;2024-03-08T04:16:17;101557.31;;;-6.37;100.00
36062;BME280;22123;52.412;20.970;2024-03-08T04:18:43;101562.38;;;-6.31;100.00
36062;BME280;22123;52.412;20.970;2024-03-08T04:21:09;101565.81;;;-6.29;100.00
36062;BME280;22123;52.412;20.970;2024-03-08T04:23:34;101550.38;;;-6.39;100.00
36062;BME280;22123;52.412;20.970;2024-03-08T04:26:02;101554.63;;;-6.35;100.00
36062;BME280;22123;52.412;20.970;2024-03-08T04:28:28;101549.50;;;-6.40;100.00
36062;BME280;22123;52.412;20.970;2024-03-08T04:30:53;101530.56;;;-6.51;100.00
36062;BME280;22123;52.412;20.970;2024-03-08T04:33:19;101514.19;;;-6.61;100.00
36062;BME280;22123;52.412;20.970;2024-03-08T04:35:45;101477.19;;;-6.83;100.00
36062;BME280;22123;52.412;20.970;2024-03-08T04:38:11;101529.84;;;-6.58;100.00
36062;BME280;22123;52.412;20.970;2024-03-08T04:40:37;101469.44;;;-6.88;100.00
36062;BME280;22123;52.412;20.970;2024-03-08T04:43:03;101511.63;;;-6.62;100.00
36062;BME280;22123;52.412;20.970;2024-03-08T04:45:29;101525.47;;;-6.57;100.00
36062;BME280;22123;52.412;20.970;2024-03-08T04:47:57;101544.47;;;-6.49;100.00
36062;BME280;22123;52.412;20.970;2024-03-08T04:50:22;101573.72;;;-6.30;100.00
36062;BME280;22123;52.412;20.970;2024-03-08T04:52:48;101522.09;;;-6.62;100.00
36062;BME280;22123;52.412;20.970;2024-03-08T04:55:14;101543.75;;;-6.54;100.00
36062;BME280;22123;52.412;20.970;2024-03-08T04:57:40;101547.06;;;-6.48;100.00
36062;BME280;22123;52.412;20.970;2024-03-08T05:00:06;101524.78;;;-6.66;100.00
36062;BME280;22123;52.412;20.970;2024-03-08T05:02:32;101544.63;;;-6.55;100.00
36062;BME280;22123;52.412;20.970;2024-03-08T05:04:59;101573.94;;;-6.39;100.00
36062;BME280;22123;52.412;20.970;2024-03-08T05:07:25;101525.88;;;-6.74;100.00
36062;BME280;22123;52.412;20.970;2024-03-08T05:09:51;101576.59;;;-6.41;100.00
36062;BME280;22123;52.412;20.970;2024-03-08T05:12:20;101532.69;;;-6.67;100.00
36062;BME280;22123;52.412;20.970;2024-03-08T05:14:46;101513.78;;;-6.80;100.00
36062;BME280;22123;52.412;20.970;2024-03-08T05:17:12;101555.97;;;-6.55;100.00
36062;BME280;22123;52.412;20.970;2024-03-08T05:19:38;101533.53;;;-6.67;100.00
36062;BME280;22123;52.412;20.970;2024-03-08T05:22:04;101530.91;;;-6.67;100.00
36062;BME280;22123;52.412;20.970;2024-03-08T05:24:30;101440.66;;;-7.27;100.00
36062;BME280;22123;52.412;20.970;2024-03-08T05:26:56;101561.13;;;-6.50;100.00
36062;BME280;22123;52.412;20.970;2024-03-08T05:29:21;101552.38;;;-6.51;100.00
36062;BME280;22123;52.412;20.970;2024-03-08T05:31:49;101563.59;;;-6.44;100.00
36062;BME280;22123;52.412;20.970;2024-03-08T05:34:16;101554.03;;;-6.47;100.00
36062;BME280;22123;52.412;20.970;2024-03-08T05:36:42;101516.84;;;-6.62;100.00
36062;BME280;22123;52.412;20.970;2024-03-08T05:39:08;101540.00;;;-6.44;100.00
36062;BME280;22123;52.412;20.970;2024-03-08T05:41:33;101528.69;;;-6.46;100.00
36062;BME280;22123;52.412;20.970;2024-03-08T05:43:59;101575.81;;;-6.08;100.00
36062;BME280;22123;52.412;20.970;2024-03-08T05:46:25;101573.09;;;-6.04;100.00
36062;BME280;22123;52.412;20.970;2024-03-08T05:48:51;101525.69;;;-6.31;100.00
36062;BME280;22123;52.412;20.970;2024-03-08T05:51:17;101536.69;;;-6.16;100.00
36062;BME280;22123;52.412;20.970;2024-03-08T05:53:43;101511.56;;;-6.25;100.00
36062;BME280;22123;52.412;20.970;2024-03-08T05:56:09;101536.41;;;-6.04;100.00
36062;BME280;22123;52.412;20.970;2024-03-08T05:58:35;101528.50;;;-6.02;100.00
36062;BME280;22123;52.412;20.970;2024-03-08T06:01:00;101544.59;;;-5.85;100.00
36062;BME280;22123;52.412;20.970;2024-03-08T06:03:26;101529.06;;;-5.93;100.00
36062;BME280;22123;52.412;20.970;2024-03-08T06:05:52;101574.38;;;-5.53;100.00
36062;BME280;22123;52.412;20.970;2024-03-08T06:08:18;101525.94;;;-5.74;100.00
36062;BME280;22123;52.412;20.970;2024-03-08T06:10:44;101524.91;;;-5.68;100.00
36062;BME280;22123;52.412;20.970;2024-03-08T06:13:10;101556.50;;;-5.40;100.00
36062;BME280;22123;52.412;20.970;2024-03-08T06:15:36;101578.66;;;-5.19;100.00
36062;BME280;22123;52.412;20.970;2024-03-08T06:18:02;101562.81;;;-5.16;100.00
36062;BME280;22123;52.412;20.970;2024-03-08T06:20:27;101537.59;;;-5.21;100.00
36062;BME280;22123;52.412;20.970;2024-03-08T06:22:53;101557.91;;;-4.98;100.00
36062;BME280;22123;52.412;20.970;2024-03-08T06:25:19;101535.31;;;-5.04;100.00
36062;BME280;22123;52.412;20.970;2024-03-08T06:27:45;101577.19;;;-4.69;100.00
36062;BME280;22123;52.412;20.970;2024-03-08T06:30:11;101517.53;;;-4.94;100.00
36062;BME280;22123;52.412;20.970;2024-03-08T06:32:37;101528.28;;;-4.74;100.00
36062;BME280;22123;52.412;20.970;2024-03-08T06:35:04;101568.31;;;-4.37;100.00
36062;BME280;22123;52.412;20.970;2024-03-08T06:37:30;101566.16;;;-4.24;100.00
36062;BME280;22123;52.412;20.970;2024-03-08T06:39:56;101512.50;;;-4.45;100.00
36062;BME280;22123;52.412;20.970;2024-03-08T06:42:22;101499.19;;;-4.41;100.00
36062;BME280;22123;52.412;20.970;2024-03-08T06:44:48;101536.66;;;-4.07;100.00
36062;BME280;22123;52.412;20.970;2024-03-08T06:47:14;101564.63;;;-3.78;100.00
36062;BME280;22123;52.412;20.970;2024-03-08T06:49:41;101570.25;;;-3.63;100.00
36062;BME280;22123;52.412;20.970;2024-03-08T06:52:07;101549.22;;;-3.63;100.00
36062;BME280;22123;52.412;20.970;2024-03-08T06:54:32;101524.63;;;-3.64;100.00
36062;BME280;22123;52.412;20.970;2024-03-08T06:56:58;101538.88;;;-3.44;100.00
36062;BME280;22123;52.412;20.970;2024-03-08T06:59:24;101505.03;;;-3.55;100.00
36062;BME280;22123;52.412;20.970;2024-03-08T07:01:50;101539.94;;;-3.26;100.00
36062;BME280;22123;52.412;20.970;2024-03-08T07:04:16;101556.75;;;-3.05;100.00
36062;BME280;22123;52.412;20.970;2024-03-08T07:06:42;101544.41;;;-3.05;100.00
36062;BME280;22123;52.412;20.970;2024-03-08T07:09:08;101558.06;;;-2.93;100.00
36062;BME280;22123;52.412;20.970;2024-03-08T07:11:33;101555.81;;;-2.81;100.00
36062;BME280;22123;52.412;20.970;2024-03-08T07:13:59;101532.22;;;-2.84;100.00
36062;BME280;22123;52.412;20.970;2024-03-08T07:16:25;101524.97;;;-2.78;100.00
36062;BME280;22123;52.412;20.970;2024-03-08T07:18:51;101556.38;;;-2.50;100.00
36062;BME280;22123;52.412;20.970;2024-03-08T07:21:17;101524.19;;;-2.58;100.00
36062;BME280;22123;52.412;20.970;2024-03-08T07:23:43;101483.47;;;-2.73;100.00
36062;BME280;22123;52.412;20.970;2024-03-08T07:26:09;101503.72;;;-2.52;100.00
36062;BME280;22123;52.412;20.970;2024-03-08T07:28:35;101526.66;;;-2.33;100.00
36062;BME280;22123;52.412;20.970;2024-03-08T07:31:01;101498.72;;;-2.37;100.00
36062;BME280;22123;52.412;20.970;2024-03-08T07:33:27;101521.38;;;-2.11;100.00
36062;BME280;22123;52.412;20.970;2024-03-08T07:35:53;101517.78;;;-2.10;100.00
36062;BME280;22123;52.412;20.970;2024-03-08T07:38:19;101487.91;;;-2.11;100.00
36062;BME280;22123;52.412;20.970;2024-03-08T07:40:44;101496.88;;;-1.94;100.00
36062;BME280;22123;52.412;20.970;2024-03-08T07:43:11;101542.88;;;-1.59;100.00
36062;BME280;22123;52.412;20.970;2024-03-08T07:45:38;101514.97;;;-1.64;100.00
36062;BME280;22123;52.412;20.970;2024-03-08T07:48:04;101499.91;;;-1.62;100.00
36062;BME280;22123;52.412;20.970;2024-03-08T07:50:30;101418.78;;;-1.98;100.00
36062;BME280;22123;52.412;20.970;2024-03-08T07:52:56;101508.94;;;-1.28;100.00
36062;BME280;22123;52.412;20.970;2024-03-08T07:55:22;101503.22;;;-1.19;100.00
36062;BME280;22123;52.412;20.970;2024-03-08T07:57:48;101531.44;;;-0.81;100.00
36062;BME280;22123;52.412;20.970;2024-03-08T08:00:14;101496.06;;;-0.79;100.00
36062;BME280;22123;52.412;20.970;2024-03-08T08:02:40;101508.75;;;-0.49;100.00
36062;BME280;22123;52.412;20.970;2024-03-08T08:05:06;101505.06;;;-0.27;100.00
36062;BME280;22123;52.412;20.970;2024-03-08T08:07:32;101501.59;;;-0.12;100.00
36062;BME280;22123;52.412;20.970;2024-03-08T08:09:57;101507.53;;;0.11;100.00
36062;BME280;22123;52.412;20.970;2024-03-08T08:12:23;101472.47;;;0.06;100.00
36062;BME280;22123;52.412;20.970;2024-03-08T08:14:49;101478.88;;;0.19;100.00
36062;BME280;22123;52.412;20.970;2024-03-08T08:17:15;101518.91;;;0.64;100.00
36062;BME280;22123;52.412;20.970;2024-03-08T08:19:41;101486.41;;;0.60;100.00
36062;BME280;22123;52.412;20.970;2024-03-08T08:22:07;101519.03;;;0.94;100.00
36062;BME280;22123;52.412;20.970;2024-03-08T08:24:33;101520.25;;;1.20;100.00
36062;BME280;22123;52.412;20.970;2024-03-08T08:26:59;101479.69;;;1.02;100.00
36062;BME280;22123;52.412;20.970;2024-03-08T08:29:24;101470.25;;;1.13;100.00
36062;BME280;22123;52.412;20.970;2024-03-08T08:31:50;101515.13;;;1.33;100.00
36062;BME280;22123;52.412;20.970;2024-03-08T08:34:16;101496.75;;;1.45;100.00
36062;BME280;22123;52.412;20.970;2024-03-08T08:36:42;101515.47;;;1.73;100.00
36062;BME280;22123;52.412;20.970;2024-03-08T08:39:08;101510.28;;;1.86;100.00
36062;BME280;22123;52.412;20.970;2024-03-08T08:41:34;101467.47;;;1.77;100.00
36062;BME280;22123;52.412;20.970;2024-03-08T08:44:00;101464.50;;;1.83;100.00
36062;BME280;22123;52.412;20.970;2024-03-08T08:46:26;101472.41;;;1.99;100.00
36062;BME280;22123;52.412;20.970;2024-03-08T08:48:52;101473.06;;;2.02;100.00
36062;BME280;22123;52.412;20.970;2024-03-08T08:51:17;101503.84;;;2.35;100.00
36062;BME280;22123;52.412;20.970;2024-03-08T08:53:43;101500.44;;;2.48;100.00
36062;BME280;22123;52.412;20.970;2024-03-08T08:56:09;101498.84;;;2.59;100.00
36062;BME280;22123;52.412;20.970;2024-03-08T08:58:35;101502.34;;;2.60;100.00
36062;BME280;22123;52.412;20.970;2024-03-08T09:01:01;101479.00;;;2.51;100.00
36062;BME280;22123;52.412;20.970;2024-03-08T09:03:27;101439.59;;;2.43;100.00
36062;BME280;22123;52.412;20.970;2024-03-08T09:05:53;101452.03;;;2.57;100.00
36062;BME280;22123;52.412;20.970;2024-03-08T09:08:19;101450.50;;;2.53;100.00
36062;BME280;22123;52.412;20.970;2024-03-08T09:10:45;101480.69;;;2.66;100.00
36062;BME280;22123;52.412;20.970;2024-03-08T09:13:12;101462.75;;;2.55;100.00
36062;BME280;22123;52.412;20.970;2024-03-08T09:15:38;101467.88;;;2.58;100.00
36062;BME280;22123;52.412;20.970;2024-03-08T09:18:04;101490.09;;;2.72;100.00
36062;BME280;22123;52.412;20.970;2024-03-08T09:20:30;101455.81;;;2.67;100.00
36062;BME280;22123;52.412;20.970;2024-03-08T09:22:57;101456.53;;;2.84;100.00
36062;BME280;22123;52.412;20.970;2024-03-08T09:25:23;101494.00;;;3.22;100.00
36062;BME280;22123;52.412;20.970;2024-03-08T09:27:49;101450.50;;;3.09;100.00
36062;BME280;22123;52.412;20.970;2024-03-08T09:30:15;101485.25;;;3.47;100.00
36062;BME280;22123;52.412;20.970;2024-03-08T09:32:41;101450.31;;;3.39;100.00
36062;BME280;22123;52.412;20.970;2024-03-08T09:35:07;101443.25;;;3.38;100.00
36062;BME280;22123;52.412;20.970;2024-03-08T09:37:33;101423.13;;;3.34;100.00
36062;BME280;22123;52.412;20.970;2024-03-08T09:39:59;101443.13;;;3.67;100.00
36062;BME280;22123;52.412;20.970;2024-03-08T09:42:25;101430.06;;;3.77;100.00
36062;BME280;22123;52.412;20.970;2024-03-08T09:44:51;101434.75;;;3.99;100.00
36062;BME280;22123;52.412;20.970;2024-03-08T09:47:17;101441.03;;;4.37;100.00
36062;BME280;22123;52.412;20.970;2024-03-08T09:49:43;101458.81;;;4.62;100.00
36062;BME280;22123;52.412;20.970;2024-03-08T09:52:09;101417.25;;;4.59;100.00
36062;BME280;22123;52.412;20.970;2024-03-08T09:54:36;101468.72;;;5.10;100.00
36062;BME280;22123;52.412;20.970;2024-03-08T09:57:03;101424.00;;;5.13;100.00
36062;BME280;22123;52.412;20.970;2024-03-08T09:59:29;101427.66;;;5.83;100.00
36062;BME280;22123;52.412;20.970;2024-03-08T10:01:55;101437.66;;;7.17;100.00
36062;BME280;22123;52.412;20.970;2024-03-08T10:04:24;101423.63;;;8.61;100.00
36062;BME280;22123;52.412;20.970;2024-03-08T10:06:50;101449.00;;;10.25;100.00
36062;BME280;22123;52.412;20.970;2024-03-08T10:09:16;101398.44;;;10.94;100.00
36062;BME280;22123;52.412;20.970;2024-03-08T10:11:42;101407.47;;;12.27;100.00
36062;BME280;22123;52.412;20.970;2024-03-08T10:14:09;101411.75;;;13.40;67.01
36062;BME280;22123;52.412;20.970;2024-03-08T10:16:35;101403.19;;;14.25;54.93
36062;BME280;22123;52.412;20.970;2024-03-08T10:19:00;101427.16;;;15.94;47.41
36062;BME280;22123;52.412;20.970;2024-03-08T10:21:26;101399.13;;;16.98;43.99
36062;BME280;22123;52.412;20.970;2024-03-08T10:23:52;101421.31;;;18.10;42.51
36062;BME280;22123;52.412;20.970;2024-03-08T10:26:19;101395.69;;;18.81;40.67
36062;BME280;22123;52.412;20.970;2024-03-08T10:28:46;101390.84;;;19.51;37.60
36062;BME280;22123;52.412;20.970;2024-03-08T10:31:12;101404.81;;;20.55;37.35
36062;BME280;22123;52.412;20.970;2024-03-08T10:33:38;101403.56;;;21.03;34.95
36062;BME280;22123;52.412;20.970;2024-03-08T10:36:06;101408.31;;;21.46;32.12
36062;BME280;22123;52.412;20.970;2024-03-08T10:38:33;101395.16;;;21.36;29.73
36062;BME280;22123;52.412;20.970;2024-03-08T10:41:01;101389.56;;;21.57;30.26
36062;BME280;22123;52.412;20.970;2024-03-08T10:43:32;101377.81;;;22.37;30.34
36062;BME280;22123;52.412;20.970;2024-03-08T10:49:07;101400.84;;;23.34;27.86
36062;BME280;22123;52.412;20.970;2024-03-08T10:51:34;101401.63;;;23.65;28.49
36062;BME280;22123;52.412;20.970;2024-03-08T10:54:02;101359.88;;;23.32;28.61
36062;BME280;22123;52.412;20.970;2024-03-08T10:56:29;101401.84;;;23.51;26.68
36062;BME280;22123;52.412;20.970;2024-03-08T10:58:55;101377.94;;;23.64;26.14
36062;BME280;22123;52.412;20.970;2024-03-08T11:01:21;101337.03;;;23.32;26.88
36062;BME280;22123;52.412;20.970;2024-03-08T11:03:48;101381.50;;;23.10;28.04
36062;BME280;22123;52.412;20.970;2024-03-08T11:09:27;101383.13;;;23.95;26.47
36062;BME280;22123;52.412;20.970;2024-03-08T11:12:20;101384.38;;;24.40;26.61
36062;BME280;22123;52.412;20.970;2024-03-08T11:14:48;101377.94;;;24.46;25.84
36062;BME280;22123;52.412;20.970;2024-03-08T11:17:20;101333.09;;;24.34;26.29
36062;BME280;22123;52.412;20.970;2024-03-08T11:19:47;101348.59;;;24.52;26.03
36062;BME280;22123;52.412;20.970;2024-03-08T11:22:25;101377.84;;;24.82;26.36
36062;BME280;22123;52.412;20.970;2024-03-08T11:24:53;101375.50;;;24.74;24.67
36062;BME280;22123;52.412;20.970;2024-03-08T11:27:30;101371.06;;;24.73;24.61
36062;BME280;22123;52.412;20.970;2024-03-08T11:30:02;101333.16;;;24.63;25.04
36062;BME280;22123;52.412;20.970;2024-03-08T11:32:29;101352.00;;;24.19;26.09
36062;BME280;22123;52.412;20.970;2024-03-08T11:34:55;101364.72;;;22.88;28.03
36062;BME280;22123;52.412;20.970;2024-03-08T11:37:21;101369.94;;;22.22;28.60
36062;BME280;22123;52.412;20.970;2024-03-08T11:39:48;101359.03;;;21.46;29.71
36062;BME280;22123;52.412;20.970;2024-03-08T11:42:15;101338.66;;;21.10;28.74
36062;BME280;22123;52.412;20.970;2024-03-08T11:44:41;101356.22;;;21.60;28.31
36062;BME280;22123;52.412;20.970;2024-03-08T11:47:12;101344.84;;;21.31;27.03
36062;BME280;22123;52.412;20.970;2024-03-08T11:49:38;101320.56;;;21.34;26.45
36062;BME280;22123;52.412;20.970;2024-03-08T11:52:04;101327.09;;;21.08;27.13
36062;BME280;22123;52.412;20.970;2024-03-08T11:54:30;101329.25;;;20.99;27.58
36062;BME280;22123;52.412;20.970;2024-03-08T11:56:57;101329.94;;;20.43;27.85
36062;BME280;22123;52.412;20.970;2024-03-08T11:59:22;101331.75;;;20.10;28.01
36062;BME280;22123;52.412;20.970;2024-03-08T12:02:05;101352.53;;;20.11;29.43
36062;BME280;22123;52.412;20.970;2024-03-08T12:04:32;101346.50;;;19.89;29.67
36062;BME280;22123;52.412;20.970;2024-03-08T12:07:02;101343.50;;;18.97;28.29
36062;BME280;22123;52.412;20.970;2024-03-08T12:09:28;101309.78;;;18.50;30.29
36062;BME280;22123;52.412;20.970;2024-03-08T12:11:54;101307.38;;;18.27;31.85
36062;BME280;22123;52.412;20.970;2024-03-08T12:14:20;101306.94;;;17.88;30.72
36062;BME280;22123;52.412;20.970;2024-03-08T12:16:46;101310.69;;;17.30;32.10
36062;BME280;22123;52.412;20.970;2024-03-08T12:19:12;101325.94;;;16.66;32.18
36062;BME280;22123;52.412;20.970;2024-03-08T12:21:38;101283.03;;;15.80;33.77
36062;BME280;22123;52.412;20.970;2024-03-08T12:24:09;101300.41;;;15.56;34.75
36062;BME280;22123;52.412;20.970;2024-03-08T12:26:36;101284.03;;;15.26;36.16
36062;BME280;22123;52.412;20.970;2024-03-08T12:29:16;101307.63;;;15.26;38.51
36062;BME280;22123;52.412;20.970;2024-03-08T12:31:42;101288.00;;;14.77;39.55
36062;BME280;22123;52.412;20.970;2024-03-08T12:34:09;101280.28;;;14.58;39.13